sensor_id;sensor_type;location;lat;lon;timestamp;temperature;humidity
45012;DHT22;63444;48.148;11.542;2022-10-13T00:01:20;12.20;99.90
45012;DHT22;63444;48.148;11.542;2022-10-13T00:03:47;12.10;99.90
45012;DHT22;63444;48.148;11.542;2022-10-13T00:06:14;12.10;99.90
45012;DHT22;63444;48.148;11.542;2022-10-13T00:08:41;12.20;99.90
45012;DHT22;63444;48.148;11.542;2022-10-13T00:11:12;12.00;99.90
45012;DHT22;63444;48.148;11.542;2022-10-13T00:13:39;12.10;99.90
45012;DHT22;63444;48.148;11.542;2022-10-13T00:16:05;12.10;99.90
45012;DHT22;63444;48.148;11.542;2022-10-13T00:18:31;12.10;99.90
45012;DHT22;63444;48.148;11.542;2022-10-13T00:20:56;12.10;99.90
45012;DHT22;63444;48.148;11.542;2022-10-13T00:23:22;12.10;99.90
45012;DHT22;63444;48.148;11.542;2022-10-13T00:25:49;12.10;99.90
45012;DHT22;63444;48.148;11.542;2022-10-13T00:28:16;12.00;99.90
45012;DHT22;63444;48.148;11.542;2022-10-13T00:30:42;12.00;99.90
45012;DHT22;63444;48.148;11.542;2022-10-13T00:33:09;12.00;99.90
45012;DHT22;63444;48.148;11.542;2022-10-13T00:35:43;11.90;99.90
45012;DHT22;63444;48.148;11.542;2022-10-13T00:38:11;12.00;99.90
45012;DHT22;63444;48.148;11.542;2022-10-13T00:40:48;12.00;99.90
45012;DHT22;63444;48.148;11.542;2022-10-13T00:43:20;12.00;99.90
45012;DHT22;63444;48.148;11.542;2022-10-13T00:45:46;11.90;99.90
45012;DHT22;63444;48.148;11.542;2022-10-13T00:48:19;11.90;99.90
45012;DHT22;63444;48.148;11.542;2022-10-13T00:50:46;11.90;99.90
45012;DHT22;63444;48.148;11.542;2022-10-13T00:53:13;11.80;99.90
45012;DHT22;63444;48.148;11.542;2022-10-13T00:55:42;11.80;99.90
45012;DHT22;63444;48.148;11.542;2022-10-13T00:58:11;11.80;99.90
45012;DHT22;63444;48.148;11.542;2022-10-13T01:00:37;11.80;99.90
45012;DHT22;63444;48.148;11.542;2022-10-13T01:03:02;11.80;99.90
45012;DHT22;63444;48.148;11.542;2022-10-13T01:05:29;11.80;99.90
45012;DHT22;63444;48.148;11.542;2022-10-13T01:07:55;11.80;99.90
45012;DHT22;63444;48.148;11.542;2022-10-13T01:10:44;11.70;99.90
45012;DHT22;63444;48.148;11.542;2022-10-13T01:13:25;11.80;99.90
45012;DHT22;63444;48.148;11.542;2022-10-13T01:27:26;11.70;99.90
45012;DHT22;63444;48.148;11.542;2022-10-13T01:30:09;11.70;99.90
45012;DHT22;63444;48.148;11.542;2022-10-13T01:32:48;11.60;99.90
45012;DHT22;63444;48.148;11.542;2022-10-13T01:40:41;11.60;99.90
45012;DHT22;63444;48.148;11.542;2022-10-13T01:43:17;11.50;99.90
45012;DHT22;63444;48.148;11.542;2022-10-13T01:45:53;11.50;99.90
45012;DHT22;63444;48.148;11.542;2022-10-13T01:48:21;11.50;99.90
45012;DHT22;63444;48.148;11.542;2022-10-13T01:50:49;11.50;99.90
45012;DHT22;63444;48.148;11.542;2022-10-13T01:53:17;11.50;99.90
45012;DHT22;63444;48.148;11.542;2022-10-13T01:55:53;11.50;99.90
45012;DHT22;63444;48.148;11.542;2022-10-13T01:58:19;11.50;99.90
45012;DHT22;63444;48.148;11.542;2022-10-13T02:00:53;11.40;99.90
45012;DHT22;63444;48.148;11.542;2022-10-13T02:03:34;11.40;99.90
45012;DHT22;63444;48.148;11.542;2022-10-13T02:06:08;11.40;99.90
45012;DHT22;63444;48.148;11.542;2022-10-13T02:11:17;11.30;99.90
45012;DHT22;63444;48.148;11.542;2022-10-13T02:14:16;11.30;99.90
45012;DHT22;63444;48.148;11.542;2022-10-13T02:16:44;11.20;99.90
45012;DHT22;63444;48.148;11.542;2022-10-13T02:19:15;11.20;99.90
45012;DHT22;63444;48.148;11.542;2022-10-13T02:21:42;11.20;99.90
45012;DHT22;63444;48.148;11.542;2022-10-13T02:24:08;11.20;99.90
45012;DHT22;63444;48.148;11.542;2022-10-13T02:26:34;11.10;99.90
45012;DHT22;63444;48.148;11.542;2022-10-13T02:29:14;11.10;99.90
45012;DHT22;63444;48.148;11.542;2022-10-13T02:31:41;11.10;99.90
45012;DHT22;63444;48.148;11.542;2022-10-13T02:34:07;11.00;99.90
45012;DHT22;63444;48.148;11.542;2022-10-13T02:36:33;11.00;99.90
45012;DHT22;63444;48.148;11.542;2022-10-13T02:38:59;11.10;99.90
45012;DHT22;63444;48.148;11.542;2022-10-13T02:41:24;11.00;99.90
45012;DHT22;63444;48.148;11.542;2022-10-13T02:43:50;11.00;99.90
45012;DHT22;63444;48.148;11.542;2022-10-13T02:46:16;11.00;99.90
45012;DHT22;63444;48.148;11.542;2022-10-13T02:48:41;11.00;99.90
45012;DHT22;63444;48.148;11.542;2022-10-13T02:51:07;11.00;99.90
45012;DHT22;63444;48.148;11.542;2022-10-13T02:53:34;11.00;99.90
45012;DHT22;63444;48.148;11.542;2022-10-13T02:55:59;11.00;99.90
45012;DHT22;63444;48.148;11.542;2022-10-13T02:58:25;11.00;99.90
45012;DHT22;63444;48.148;11.542;2022-10-13T03:00:53;11.00;99.90
45012;DHT22;63444;48.148;11.542;2022-10-13T03:03:19;10.90;99.90
45012;DHT22;63444;48.148;11.542;2022-10-13T03:05:44;10.80;99.90
45012;DHT22;63444;48.148;11.542;2022-10-13T03:08:11;10.90;99.90
45012;DHT22;63444;48.148;11.542;2022-10-13T03:10:37;10.90;99.90
45012;DHT22;63444;48.148;11.542;2022-10-13T03:13:02;10.90;99.90
45012;DHT22;63444;48.148;11.542;2022-10-13T03:15:28;10.80;99.90
45012;DHT22;63444;48.148;11.542;2022-10-13T03:17:54;10.80;99.90
45012;DHT22;63444;48.148;11.542;2022-10-13T03:20:19;10.90;99.90
45012;DHT22;63444;48.148;11.542;2022-10-13T03:22:45;10.70;99.90
45012;DHT22;63444;48.148;11.542;2022-10-13T03:25:10;10.70;99.90
45012;DHT22;63444;48.148;11.542;2022-10-13T03:27:37;10.70;99.90
45012;DHT22;63444;48.148;11.542;2022-10-13T03:30:03;10.70;99.90
45012;DHT22;63444;48.148;11.542;2022-10-13T03:32:29;10.70;99.90
45012;DHT22;63444;48.148;11.542;2022-10-13T03:34:55;10.70;99.90
45012;DHT22;63444;48.148;11.542;2022-10-13T03:37:21;10.60;99.90
45012;DHT22;63444;48.148;11.542;2022-10-13T03:39:47;10.80;99.90
45012;DHT22;63444;48.148;11.542;2022-10-13T03:42:12;10.60;99.90
45012;DHT22;63444;48.148;11.542;2022-10-13T03:44:38;10.60;99.90
45012;DHT22;63444;48.148;11.542;2022-10-13T03:47:04;10.60;99.90
45012;DHT22;63444;48.148;11.542;2022-10-13T03:49:29;10.60;99.90
45012;DHT22;63444;48.148;11.542;2022-10-13T03:51:55;10.60;99.90
45012;DHT22;63444;48.148;11.542;2022-10-13T03:54:20;10.50;99.90
45012;DHT22;63444;48.148;11.542;2022-10-13T03:56:46;10.50;99.90
45012;DHT22;63444;48.148;11.542;2022-10-13T03:59:12;10.50;99.90
45012;DHT22;63444;48.148;11.542;2022-10-13T04:01:41;10.50;99.90
45012;DHT22;63444;48.148;11.542;2022-10-13T04:04:09;10.50;99.90
45012;DHT22;63444;48.148;11.542;2022-10-13T04:06:35;10.50;99.90
45012;DHT22;63444;48.148;11.542;2022-10-13T04:09:01;10.50;99.90
45012;DHT22;63444;48.148;11.542;2022-10-13T04:11:28;10.60;99.90
45012;DHT22;63444;48.148;11.542;2022-10-13T04:13:57;10.60;99.90
45012;DHT22;63444;48.148;11.542;2022-10-13T04:16:26;10.50;99.90
45012;DHT22;63444;48.148;11.542;2022-10-13T04:18:55;10.60;99.90
45012;DHT22;63444;48.148;11.542;2022-10-13T04:21:22;10.60;99.90
45012;DHT22;63444;48.148;11.542;2022-10-13T04:23:48;10.60;99.90
45012;DHT22;63444;48.148;11.542;2022-10-13T04:26:19;10.60;99.90
45012;DHT22;63444;48.148;11.542;2022-10-13T04:28:47;10.60;99.90
45012;DHT22;63444;48.148;11.542;2022-10-13T04:31:13;10.60;99.90
45012;DHT22;63444;48.148;11.542;2022-10-13T04:33:40;10.60;99.90
45012;DHT22;63444;48.148;11.542;2022-10-13T04:36:07;10.70;99.90
45012;DHT22;63444;48.148;11.542;2022-10-13T04:38:33;10.70;99.90
45012;DHT22;63444;48.148;11.542;2022-10-13T04:41:03;10.70;99.90
45012;DHT22;63444;48.148;11.542;2022-10-13T04:43:29;10.70;99.90
45012;DHT22;63444;48.148;11.542;2022-10-13T04:46:12;10.80;99.90
45012;DHT22;63444;48.148;11.542;2022-10-13T04:48:38;10.80;99.90
45012;DHT22;63444;48.148;11.542;2022-10-13T04:51:06;10.80;99.90
45012;DHT22;63444;48.148;11.542;2022-10-13T04:53:33;10.80;99.90
45012;DHT22;63444;48.148;11.542;2022-10-13T04:56:04;10.90;99.90
45012;DHT22;63444;48.148;11.542;2022-10-13T04:58:30;10.80;99.90
45012;DHT22;63444;48.148;11.542;2022-10-13T05:00:56;10.90;99.90
45012;DHT22;63444;48.148;11.542;2022-10-13T05:03:23;10.90;99.90
45012;DHT22;63444;48.148;11.542;2022-10-13T05:05:50;10.90;99.90
45012;DHT22;63444;48.148;11.542;2022-10-13T05:08:16;11.00;99.90
45012;DHT22;63444;48.148;11.542;2022-10-13T05:10:41;11.00;99.90
45012;DHT22;63444;48.148;11.542;2022-10-13T05:13:07;11.00;99.90
45012;DHT22;63444;48.148;11.542;2022-10-13T05:15:34;11.00;99.90
45012;DHT22;63444;48.148;11.542;2022-10-13T05:18:02;11.10;99.90
45012;DHT22;63444;48.148;11.542;2022-10-13T05:20:28;11.20;99.90
45012;DHT22;63444;48.148;11.542;2022-10-13T05:22:54;11.20;99.90
45012;DHT22;63444;48.148;11.542;2022-10-13T05:25:21;11.20;99.90
45012;DHT22;63444;48.148;11.542;2022-10-13T05:27:46;11.20;99.90
45012;DHT22;63444;48.148;11.542;2022-10-13T05:30:12;11.20;99.90
45012;DHT22;63444;48.148;11.542;2022-10-13T05:32:38;11.30;99.90
45012;DHT22;63444;48.148;11.542;2022-10-13T05:35:04;11.30;99.90
45012;DHT22;63444;48.148;11.542;2022-10-13T05:37:29;11.30;99.90
45012;DHT22;63444;48.148;11.542;2022-10-13T05:39:55;11.20;99.90
45012;DHT22;63444;48.148;11.542;2022-10-13T05:42:20;11.40;99.90
45012;DHT22;63444;48.148;11.542;2022-10-13T05:44:46;11.40;99.90
45012;DHT22;63444;48.148;11.542;2022-10-13T05:47:11;11.40;99.90
45012;DHT22;63444;48.148;11.542;2022-10-13T05:49:37;11.40;99.90
45012;DHT22;63444;48.148;11.542;2022-10-13T05:52:07;11.40;99.90
45012;DHT22;63444;48.148;11.542;2022-10-13T05:54:36;11.50;99.90
45012;DHT22;63444;48.148;11.542;2022-10-13T05:57:18;11.50;99.90
45012;DHT22;63444;48.148;11.542;2022-10-13T06:00:07;11.50;99.90
45012;DHT22;63444;48.148;11.542;2022-10-13T06:05:21;11.60;99.90
45012;DHT22;63444;48.148;11.542;2022-10-13T06:07:48;11.60;99.90
45012;DHT22;63444;48.148;11.542;2022-10-13T06:10:14;11.60;99.90
45012;DHT22;63444;48.148;11.542;2022-10-13T06:12:40;11.60;99.90
45012;DHT22;63444;48.148;11.542;2022-10-13T06:15:06;11.70;99.90
45012;DHT22;63444;48.148;11.542;2022-10-13T06:17:35;11.70;99.90
45012;DHT22;63444;48.148;11.542;2022-10-13T06:20:02;11.70;99.90
45012;DHT22;63444;48.148;11.542;2022-10-13T06:22:30;11.70;99.90
45012;DHT22;63444;48.148;11.542;2022-10-13T06:24:58;11.70;99.90
45012;DHT22;63444;48.148;11.542;2022-10-13T06:27:24;11.70;99.90
45012;DHT22;63444;48.148;11.542;2022-10-13T06:29:49;11.80;99.90
45012;DHT22;63444;48.148;11.542;2022-10-13T06:32:15;11.80;99.90
45012;DHT22;63444;48.148;11.542;2022-10-13T06:34:40;11.80;99.90
45012;DHT22;63444;48.148;11.542;2022-10-13T06:37:06;11.90;99.90
45012;DHT22;63444;48.148;11.542;2022-10-13T06:39:32;11.90;99.90
45012;DHT22;63444;48.148;11.542;2022-10-13T06:41:57;11.90;99.90
45012;DHT22;63444;48.148;11.542;2022-10-13T06:44:23;11.90;99.90
45012;DHT22;63444;48.148;11.542;2022-10-13T06:46:48;12.00;99.90
45012;DHT22;63444;48.148;11.542;2022-10-13T06:49:14;12.00;99.90
45012;DHT22;63444;48.148;11.542;2022-10-13T06:51:40;12.10;99.90
45012;DHT22;63444;48.148;11.542;2022-10-13T06:54:05;12.10;99.90
45012;DHT22;63444;48.148;11.542;2022-10-13T06:56:31;12.20;99.90
45012;DHT22;63444;48.148;11.542;2022-10-13T06:58:56;12.20;99.90
45012;DHT22;63444;48.148;11.542;2022-10-13T07:01:22;12.10;99.90
45012;DHT22;63444;48.148;11.542;2022-10-13T07:03:48;12.30;99.90
45012;DHT22;63444;48.148;11.542;2022-10-13T07:06:14;12.30;99.90
45012;DHT22;63444;48.148;11.542;2022-10-13T07:08:40;12.40;99.90
45012;DHT22;63444;48.148;11.542;2022-10-13T07:11:10;12.40;99.90
45012;DHT22;63444;48.148;11.542;2022-10-13T07:13:37;12.40;99.90
45012;DHT22;63444;48.148;11.542;2022-10-13T07:16:03;12.50;99.90
45012;DHT22;63444;48.148;11.542;2022-10-13T07:18:30;12.50;99.90
45012;DHT22;63444;48.148;11.542;2022-10-13T07:20:57;12.60;99.90
45012;DHT22;63444;48.148;11.542;2022-10-13T07:23:23;12.60;99.90
45012;DHT22;63444;48.148;11.542;2022-10-13T07:25:49;12.60;99.90
45012;DHT22;63444;48.148;11.542;2022-10-13T07:28:14;12.60;99.90
45012;DHT22;63444;48.148;11.542;2022-10-13T07:30:40;12.70;99.90
45012;DHT22;63444;48.148;11.542;2022-10-13T07:33:06;12.60;99.90
45012;DHT22;63444;48.148;11.542;2022-10-13T07:35:32;12.70;99.90
45012;DHT22;63444;48.148;11.542;2022-10-13T07:37:57;12.70;99.90
45012;DHT22;63444;48.148;11.542;2022-10-13T07:40:23;12.80;99.90
45012;DHT22;63444;48.148;11.542;2022-10-13T07:42:49;12.70;99.90
45012;DHT22;63444;48.148;11.542;2022-10-13T07:45:16;12.80;99.90
45012;DHT22;63444;48.148;11.542;2022-10-13T07:47:41;12.80;99.90
45012;DHT22;63444;48.148;11.542;2022-10-13T07:50:07;12.80;99.90
45012;DHT22;63444;48.148;11.542;2022-10-13T07:52:36;12.90;99.90
45012;DHT22;63444;48.148;11.542;2022-10-13T07:55:02;12.90;99.90
45012;DHT22;63444;48.148;11.542;2022-10-13T07:57:29;13.00;99.90
45012;DHT22;63444;48.148;11.542;2022-10-13T07:59:55;13.00;99.90
45012;DHT22;63444;48.148;11.542;2022-10-13T08:02:21;13.00;99.90
45012;DHT22;63444;48.148;11.542;2022-10-13T08:04:47;13.10;99.90
45012;DHT22;63444;48.148;11.542;2022-10-13T08:07:12;13.10;99.90
45012;DHT22;63444;48.148;11.542;2022-10-13T08:09:38;13.10;99.90
45012;DHT22;63444;48.148;11.542;2022-10-13T08:12:04;13.10;99.90
45012;DHT22;63444;48.148;11.542;2022-10-13T08:14:30;13.20;99.90
45012;DHT22;63444;48.148;11.542;2022-10-13T08:16:56;13.20;99.90
45012;DHT22;63444;48.148;11.542;2022-10-13T08:19:22;13.20;99.90
45012;DHT22;63444;48.148;11.542;2022-10-13T08:21:51;13.30;99.90
45012;DHT22;63444;48.148;11.542;2022-10-13T08:24:17;13.40;99.90
45012;DHT22;63444;48.148;11.542;2022-10-13T08:26:45;13.40;99.90
45012;DHT22;63444;48.148;11.542;2022-10-13T08:29:11;13.40;99.90
45012;DHT22;63444;48.148;11.542;2022-10-13T08:31:37;13.40;99.90
45012;DHT22;63444;48.148;11.542;2022-10-13T08:34:03;13.60;99.90
45012;DHT22;63444;48.148;11.542;2022-10-13T08:36:29;13.40;99.90
45012;DHT22;63444;48.148;11.542;2022-10-13T08:38:54;13.30;99.90
45012;DHT22;63444;48.148;11.542;2022-10-13T08:41:23;13.40;99.90
45012;DHT22;63444;48.148;11.542;2022-10-13T08:46:48;13.40;99.90
45012;DHT22;63444;48.148;11.542;2022-10-13T08:49:17;13.40;99.90
45012;DHT22;63444;48.148;11.542;2022-10-13T08:51:42;13.40;99.90
45012;DHT22;63444;48.148;11.542;2022-10-13T08:54:12;13.50;99.90
45012;DHT22;63444;48.148;11.542;2022-10-13T08:56:39;13.60;99.90
45012;DHT22;63444;48.148;11.542;2022-10-13T08:59:05;13.70;99.90
45012;DHT22;63444;48.148;11.542;2022-10-13T09:01:35;13.80;99.90
45012;DHT22;63444;48.148;11.542;2022-10-13T09:06:53;13.90;99.90
45012;DHT22;63444;48.148;11.542;2022-10-13T09:09:19;14.00;99.90
45012;DHT22;63444;48.148;11.542;2022-10-13T09:11:47;14.00;99.90
45012;DHT22;63444;48.148;11.542;2022-10-13T09:14:22;14.10;99.90
45012;DHT22;63444;48.148;11.542;2022-10-13T09:16:49;14.10;99.90
45012;DHT22;63444;48.148;11.542;2022-10-13T09:19:28;14.20;99.90
45012;DHT22;63444;48.148;11.542;2022-10-13T09:22:38;14.20;99.90
45012;DHT22;63444;48.148;11.542;2022-10-13T09:27:59;14.30;99.90
45012;DHT22;63444;48.148;11.542;2022-10-13T09:30:35;14.40;99.90
45012;DHT22;63444;48.148;11.542;2022-10-13T09:35:42;14.50;99.90
45012;DHT22;63444;48.148;11.542;2022-10-13T09:38:15;14.60;99.90
45012;DHT22;63444;48.148;11.542;2022-10-13T09:40:42;14.70;99.90
45012;DHT22;63444;48.148;11.542;2022-10-13T09:43:35;14.70;99.90
45012;DHT22;63444;48.148;11.542;2022-10-13T09:46:11;14.70;99.90
45012;DHT22;63444;48.148;11.542;2022-10-13T09:48:37;14.80;99.90
45012;DHT22;63444;48.148;11.542;2022-10-13T09:51:37;14.90;99.90
45012;DHT22;63444;48.148;11.542;2022-10-13T09:54:04;14.90;99.90
45012;DHT22;63444;48.148;11.542;2022-10-13T09:56:38;15.00;99.90
45012;DHT22;63444;48.148;11.542;2022-10-13T10:01:52;15.10;99.90
45012;DHT22;63444;48.148;11.542;2022-10-13T10:04:31;15.20;99.90
45012;DHT22;63444;48.148;11.542;2022-10-13T10:07:01;15.30;99.90
45012;DHT22;63444;48.148;11.542;2022-10-13T10:09:38;15.40;99.90
45012;DHT22;63444;48.148;11.542;2022-10-13T10:12:05;15.50;99.90
45012;DHT22;63444;48.148;11.542;2022-10-13T10:14:35;15.50;99.90
45012;DHT22;63444;48.148;11.542;2022-10-13T10:17:25;15.60;99.90
45012;DHT22;63444;48.148;11.542;2022-10-13T10:23:21;15.80;99.90
45012;DHT22;63444;48.148;11.542;2022-10-13T10:26:01;15.80;99.90
45012;DHT22;63444;48.148;11.542;2022-10-13T10:28:38;15.80;99.90
45012;DHT22;63444;48.148;11.542;2022-10-13T10:31:29;15.90;99.90
45012;DHT22;63444;48.148;11.542;2022-10-13T10:34:33;15.90;99.90
45012;DHT22;63444;48.148;11.542;2022-10-13T10:40:13;16.00;99.90
45012;DHT22;63444;48.148;11.542;2022-10-13T10:45:30;16.00;99.90
45012;DHT22;63444;48.148;11.542;2022-10-13T10:48:00;16.00;99.90
45012;DHT22;63444;48.148;11.542;2022-10-13T10:50:28;16.10;99.90
45012;DHT22;63444;48.148;11.542;2022-10-13T10:53:00;16.10;99.90
45012;DHT22;63444;48.148;11.542;2022-10-13T10:58:31;16.40;99.90
45012;DHT22;63444;48.148;11.542;2022-10-13T11:01:13;16.40;99.90
45012;DHT22;63444;48.148;11.542;2022-10-13T11:03:53;16.60;99.90
45012;DHT22;63444;48.148;11.542;2022-10-13T11:06:25;16.70;99.90
45012;DHT22;63444;48.148;11.542;2022-10-13T11:08:56;16.70;99.90
45012;DHT22;63444;48.148;11.542;2022-10-13T11:13:53;16.80;99.90
45012;DHT22;63444;48.148;11.542;2022-10-13T11:16:29;16.90;99.90
45012;DHT22;63444;48.148;11.542;2022-10-13T11:18:57;16.90;99.90
45012;DHT22;63444;48.148;11.542;2022-10-13T11:24:49;17.10;99.90
45012;DHT22;63444;48.148;11.542;2022-10-13T11:43:30;17.40;99.90
45012;DHT22;63444;48.148;11.542;2022-10-13T11:54:03;17.60;99.90
45012;DHT22;63444;48.148;11.542;2022-10-13T11:56:45;17.60;99.90
45012;DHT22;63444;48.148;11.542;2022-10-13T11:59:31;17.60;99.90
45012;DHT22;63444;48.148;11.542;2022-10-13T12:02:12;17.70;99.90
45012;DHT22;63444;48.148;11.542;2022-10-13T12:04:39;17.70;99.90
45012;DHT22;63444;48.148;11.542;2022-10-13T12:07:08;17.60;99.90
45012;DHT22;63444;48.148;11.542;2022-10-13T12:09:58;17.60;99.90
45012;DHT22;63444;48.148;11.542;2022-10-13T12:12:23;17.60;99.90
45012;DHT22;63444;48.148;11.542;2022-10-13T12:14:52;17.70;99.90
45012;DHT22;63444;48.148;11.542;2022-10-13T12:17:37;17.60;99.90
45012;DHT22;63444;48.148;11.542;2022-10-13T12:20:20;17.60;99.90
45012;DHT22;63444;48.148;11.542;2022-10-13T12:22:47;17.60;99.90
45012;DHT22;63444;48.148;11.542;2022-10-13T12:25:16;17.60;99.90
45012;DHT22;63444;48.148;11.542;2022-10-13T12:27:46;17.50;99.90
45012;DHT22;63444;48.148;11.542;2022-10-13T12:30:30;17.50;99.90
45012;DHT22;63444;48.148;11.542;2022-10-13T12:32:58;17.50;99.90
45012;DHT22;63444;48.148;11.542;2022-10-13T12:35:27;17.50;99.90
45012;DHT22;63444;48.148;11.542;2022-10-13T12:37:54;17.50;99.90
45012;DHT22;63444;48.148;11.542;2022-10-13T12:40:22;17.60;99.90
45012;DHT22;63444;48.148;11.542;2022-10-13T12:42:48;17.50;99.90
45012;DHT22;63444;48.148;11.542;2022-10-13T12:45:16;17.40;99.90
45012;DHT22;63444;48.148;11.542;2022-10-13T12:47:47;17.50;99.90
45012;DHT22;63444;48.148;11.542;2022-10-13T12:53:10;17.50;99.90
45012;DHT22;63444;48.148;11.542;2022-10-13T12:55:52;17.50;99.90
45012;DHT22;63444;48.148;11.542;2022-10-13T12:58:34;17.50;99.90
45012;DHT22;63444;48.148;11.542;2022-10-13T13:01:20;17.40;99.90
45012;DHT22;63444;48.148;11.542;2022-10-13T13:03:54;17.50;99.90
45012;DHT22;63444;48.148;11.542;2022-10-13T13:06:24;17.50;99.90
45012;DHT22;63444;48.148;11.542;2022-10-13T13:11:49;17.40;99.90
45012;DHT22;63444;48.148;11.542;2022-10-13T13:14:53;17.50;99.90
45012;DHT22;63444;48.148;11.542;2022-10-13T13:17:25;17.60;99.90
45012;DHT22;63444;48.148;11.542;2022-10-13T13:19:52;17.60;99.90
45012;DHT22;63444;48.148;11.542;2022-10-13T13:22:18;17.60;99.90
45012;DHT22;63444;48.148;11.542;2022-10-13T13:24:44;17.70;99.90
45012;DHT22;63444;48.148;11.542;2022-10-13T13:29:51;17.70;99.90
45012;DHT22;63444;48.148;11.542;2022-10-13T13:32:19;17.60;99.90
45012;DHT22;63444;48.148;11.542;2022-10-13T13:34:46;17.70;99.90
45012;DHT22;63444;48.148;11.542;2022-10-13T13:37:19;17.70;99.90
45012;DHT22;63444;48.148;11.542;2022-10-13T13:39:47;17.70;99.90
45012;DHT22;63444;48.148;11.542;2022-10-13T13:42:13;17.70;99.90
45012;DHT22;63444;48.148;11.542;2022-10-13T13:44:39;17.70;99.90
45012;DHT22;63444;48.148;11.542;2022-10-13T13:47:13;17.70;99.90
45012;DHT22;63444;48.148;11.542;2022-10-13T13:49:40;17.60;99.90
45012;DHT22;63444;48.148;11.542;2022-10-13T13:52:05;17.70;99.90
45012;DHT22;63444;48.148;11.542;2022-10-13T13:54:31;17.70;99.90
45012;DHT22;63444;48.148;11.542;2022-10-13T13:56:56;17.70;99.90
45012;DHT22;63444;48.148;11.542;2022-10-13T13:59:22;17.70;99.90
45012;DHT22;63444;48.148;11.542;2022-10-13T14:01:47;17.60;99.90
45012;DHT22;63444;48.148;11.542;2022-10-13T14:04:13;17.60;99.90
45012;DHT22;63444;48.148;11.542;2022-10-13T14:06:38;17.60;99.90
45012;DHT22;63444;48.148;11.542;2022-10-13T14:09:04;17.50;99.90
45012;DHT22;63444;48.148;11.542;2022-10-13T14:11:30;17.50;99.90
45012;DHT22;63444;48.148;11.542;2022-10-13T14:13:55;17.50;99.90
45012;DHT22;63444;48.148;11.542;2022-10-13T14:16:26;17.50;99.90
45012;DHT22;63444;48.148;11.542;2022-10-13T14:18:52;17.50;99.90
45012;DHT22;63444;48.148;11.542;2022-10-13T14:21:17;17.50;99.90
45012;DHT22;63444;48.148;11.542;2022-10-13T14:23:43;17.50;99.90
45012;DHT22;63444;48.148;11.542;2022-10-13T14:26:12;17.50;99.90
45012;DHT22;63444;48.148;11.542;2022-10-13T14:28:41;17.50;99.90
45012;DHT22;63444;48.148;11.542;2022-10-13T14:31:07;17.40;99.90
45012;DHT22;63444;48.148;11.542;2022-10-13T14:33:33;17.50;99.90
45012;DHT22;63444;48.148;11.542;2022-10-13T14:37:23;17.50;99.90
45012;DHT22;63444;48.148;11.542;2022-10-13T14:39:49;17.60;99.90
45012;DHT22;63444;48.148;11.542;2022-10-13T14:42:15;17.70;99.90
45012;DHT22;63444;48.148;11.542;2022-10-13T14:44:40;17.70;99.90
45012;DHT22;63444;48.148;11.542;2022-10-13T14:47:06;17.80;99.90
45012;DHT22;63444;48.148;11.542;2022-10-13T14:49:31;17.80;99.90
45012;DHT22;63444;48.148;11.542;2022-10-13T14:51:57;17.80;99.90
45012;DHT22;63444;48.148;11.542;2022-10-13T14:54:23;17.90;99.90
45012;DHT22;63444;48.148;11.542;2022-10-13T14:56:48;17.80;99.90
45012;DHT22;63444;48.148;11.542;2022-10-13T14:59:14;17.80;99.90
45012;DHT22;63444;48.148;11.542;2022-10-13T15:01:40;17.80;99.90
45012;DHT22;63444;48.148;11.542;2022-10-13T15:04:07;17.80;99.90
45012;DHT22;63444;48.148;11.542;2022-10-13T15:06:33;17.90;99.90
45012;DHT22;63444;48.148;11.542;2022-10-13T15:08:59;17.90;99.90
45012;DHT22;63444;48.148;11.542;2022-10-13T15:11:25;18.00;99.90
45012;DHT22;63444;48.148;11.542;2022-10-13T15:13:52;18.00;99.90
45012;DHT22;63444;48.148;11.542;2022-10-13T15:16:23;18.10;99.90
45012;DHT22;63444;48.148;11.542;2022-10-13T15:18:50;18.00;99.90
45012;DHT22;63444;48.148;11.542;2022-10-13T15:21:16;18.00;99.90
45012;DHT22;63444;48.148;11.542;2022-10-13T15:23:42;17.90;99.90
45012;DHT22;63444;48.148;11.542;2022-10-13T15:26:10;17.90;99.90
45012;DHT22;63444;48.148;11.542;2022-10-13T15:28:39;17.90;99.90
45012;DHT22;63444;48.148;11.542;2022-10-13T15:31:05;17.90;99.90
45012;DHT22;63444;48.148;11.542;2022-10-13T15:33:33;17.90;99.90
45012;DHT22;63444;48.148;11.542;2022-10-13T15:35:59;17.90;99.90
45012;DHT22;63444;48.148;11.542;2022-10-13T15:38:26;17.90;99.90
45012;DHT22;63444;48.148;11.542;2022-10-13T15:40:52;17.80;99.90
45012;DHT22;63444;48.148;11.542;2022-10-13T15:43:23;17.80;99.90
45012;DHT22;63444;48.148;11.542;2022-10-13T15:45:56;17.80;99.90
45012;DHT22;63444;48.148;11.542;2022-10-13T15:48:23;17.70;99.90
45012;DHT22;63444;48.148;11.542;2022-10-13T15:50:49;17.70;99.90
45012;DHT22;63444;48.148;11.542;2022-10-13T15:53:15;17.70;99.90
45012;DHT22;63444;48.148;11.542;2022-10-13T15:55:40;17.60;99.90
45012;DHT22;63444;48.148;11.542;2022-10-13T15:58:06;17.60;99.90
45012;DHT22;63444;48.148;11.542;2022-10-13T16:00:32;17.50;99.90
45012;DHT22;63444;48.148;11.542;2022-10-13T16:02:57;17.50;99.90
45012;DHT22;63444;48.148;11.542;2022-10-13T16:05:23;17.40;99.90
45012;DHT22;63444;48.148;11.542;2022-10-13T16:07:49;17.40;99.90
45012;DHT22;63444;48.148;11.542;2022-10-13T16:10:16;17.30;99.90
45012;DHT22;63444;48.148;11.542;2022-10-13T16:12:42;17.30;99.90
45012;DHT22;63444;48.148;11.542;2022-10-13T16:15:10;17.30;99.90
45012;DHT22;63444;48.148;11.542;2022-10-13T16:17:37;17.10;99.90
45012;DHT22;63444;48.148;11.542;2022-10-13T16:20:04;17.10;99.90
45012;DHT22;63444;48.148;11.542;2022-10-13T16:22:30;17.10;99.90
45012;DHT22;63444;48.148;11.542;2022-10-13T16:24:56;16.90;99.90
45012;DHT22;63444;48.148;11.542;2022-10-13T16:27:22;16.80;99.90
45012;DHT22;63444;48.148;11.542;2022-10-13T16:29:48;16.80;99.90
45012;DHT22;63444;48.148;11.542;2022-10-13T16:32:14;16.80;99.90
45012;DHT22;63444;48.148;11.542;2022-10-13T16:34:40;16.90;99.90
45012;DHT22;63444;48.148;11.542;2022-10-13T16:37:05;16.90;99.90
45012;DHT22;63444;48.148;11.542;2022-10-13T16:39:31;16.80;99.90
45012;DHT22;63444;48.148;11.542;2022-10-13T16:41:57;16.70;99.90
45012;DHT22;63444;48.148;11.542;2022-10-13T16:44:22;16.70;99.90
45012;DHT22;63444;48.148;11.542;2022-10-13T16:46:48;16.70;99.90
45012;DHT22;63444;48.148;11.542;2022-10-13T16:49:14;16.70;99.90
45012;DHT22;63444;48.148;11.542;2022-10-13T16:51:40;16.70;99.90
45012;DHT22;63444;48.148;11.542;2022-10-13T16:54:06;16.70;99.90